Time;durP1;ratioP1;P1;durP2;ratioP2;P2;SDS_P1;SDS_P2;PMS_P1;PMS_P2;Temp;Humidity;BMP_temperature;BMP_pressure;BME280_temperature;BME280_humidity;BME280_pressure;Samples;Min_cycle;Max_cycle;Signal;HPM_P1;HPM_P2
2023/08/18 00:00:55;;;;;;;;;;;17.20;99.90;;;;;;5097690;28;19983;-45
2023/08/18 00:03:21;;;;;;;;;;;17.10;99.90;;;;;;5097255;28;20298;-45
2023/08/18 00:05:46;;;;;;;;;;;17.00;99.90;;;;;;5097197;28;19945;-45
2023/08/18 00:08:12;;;;;;;;;;;16.90;99.90;;;;;;5096983;28;19920;-45
2023/08/18 00:10:37;;;;;;;;;;;16.90;99.90;;;;;;5097131;28;20380;-45
2023/08/18 00:13:03;;;;;;;;;;;16.80;99.90;;;;;;5096927;28;19924;-45
2023/08/18 00:15:29;;;;;;;;;;;16.80;99.90;;;;;;5096183;28;19920;-45
2023/08/18 00:17:54;;;;;;;;;;;16.80;99.90;;;;;;5097094;28;19923;-45
2023/08/18 00:20:20;;;;;;;;;;;16.70;99.90;;;;;;5097213;28;19920;-45
2023/08/18 00:22:45;;;;;;;;;;;16.70;99.90;;;;;;5096904;28;19920;-45
2023/08/18 00:25:11;;;;;;;;;;;16.70;99.90;;;;;;5096602;28;19946;-46
2023/08/18 00:27:37;;;;;;;;;;;16.70;99.90;;;;;;5096639;28;19927;-45
2023/08/18 00:30:04;;;;;;;;;;;16.70;99.90;;;;;;5096957;28;20006;-45
2023/08/18 00:32:30;;;;;;;;;;;16.70;99.90;;;;;;5095763;28;19937;-45
2023/08/18 00:34:56;;;;;;;;;;;16.70;99.90;;;;;;5096631;28;20441;-45
2023/08/18 00:37:21;;;;;;;;;;;16.70;99.90;;;;;;5096546;28;19956;-45
2023/08/18 00:39:47;;;;;;;;;;;16.70;99.90;;;;;;5096657;28;19920;-46
2023/08/18 00:42:12;;;;;;;;;;;16.70;99.90;;;;;;5096220;28;20426;-46
2023/08/18 00:44:38;;;;;;;;;;;16.70;99.90;;;;;;5129820;27;19965;-44
2023/08/18 00:47:04;;;;;;;;;;;16.70;99.90;;;;;;5096539;28;19926;-46
2023/08/18 00:49:29;;;;;;;;;;;16.70;99.90;;;;;;5096299;28;20385;-45
2023/08/18 00:51:56;;;;;;;;;;;16.60;99.90;;;;;;5096379;28;19923;-46
2023/08/18 00:54:21;;;;;;;;;;;16.70;99.90;;;;;;5096225;28;20368;-46
2023/08/18 00:56:47;;;;;;;;;;;16.60;99.90;;;;;;5095971;28;19966;-45
2023/08/18 00:59:13;;;;;;;;;;;16.60;99.90;;;;;;5095174;28;19924;-46
2023/08/18 01:01:39;;;;;;;;;;;16.60;99.90;;;;;;5096739;28;19920;-46
2023/08/18 01:04:05;;;;;;;;;;;16.70;99.90;;;;;;5096085;28;19924;-45
2023/08/18 01:06:32;;;;;;;;;;;16.70;99.90;;;;;;5095960;28;19927;-45
2023/08/18 01:08:57;;;;;;;;;;;16.70;99.90;;;;;;5095906;28;20391;-45
2023/08/18 01:11:41;;;;;;;;;;;16.70;99.90;;;;;;5095733;28;19926;-45
2023/08/18 01:14:33;;;;;;;;;;;16.70;99.90;;;;;;5095779;28;19927;-47
2023/08/18 01:17:06;;;;;;;;;;;16.70;99.90;;;;;;5093558;28;20045;-44
2023/08/18 01:19:32;;;;;;;;;;;16.80;99.90;;;;;;5095649;28;19924;-46
2023/08/18 01:21:58;;;;;;;;;;;16.70;99.90;;;;;;5095474;28;20379;-45
2023/08/18 01:24:24;;;;;;;;;;;16.70;99.90;;;;;;5095631;28;19924;-45
2023/08/18 01:26:51;;;;;;;;;;;16.70;99.90;;;;;;5094444;28;20275;-45
2023/08/18 01:29:18;;;;;;;;;;;16.70;99.90;;;;;;5128575;27;19973;-45
2023/08/18 01:31:45;;;;;;;;;;;16.80;99.90;;;;;;5095431;28;20417;-44
2023/08/18 01:34:12;;;;;;;;;;;16.80;99.90;;;;;;5095455;28;20304;-45
2023/08/18 01:36:39;;;;;;;;;;;16.80;99.90;;;;;;5095502;28;19975;-44
2023/08/18 01:39:06;;;;;;;;;;;16.80;99.90;;;;;;5095322;28;19923;-44
2023/08/18 01:41:32;;;;;;;;;;;16.80;99.90;;;;;;5095651;28;20317;-45
2023/08/18 01:44:01;;;;;;;;;;;16.80;99.90;;;;;;5094469;28;19920;-46
2023/08/18 01:46:27;;;;;;;;;;;16.80;99.90;;;;;;5095005;28;20022;-45
2023/08/18 01:48:53;;;;;;;;;;;16.80;99.90;;;;;;5095207;28;19920;-45
2023/08/18 01:51:18;;;;;;;;;;;16.80;99.90;;;;;;5095217;28;19920;-46
2023/08/18 01:53:44;;;;;;;;;;;16.80;99.90;;;;;;5095145;28;19988;-45
2023/08/18 01:56:09;;;;;;;;;;;16.80;99.90;;;;;;5095382;28;19927;-45
2023/08/18 01:58:35;;;;;;;;;;;16.80;99.90;;;;;;5094884;28;20329;-45
2023/08/18 02:01:00;;;;;;;;;;;16.80;99.90;;;;;;5094912;28;20275;-45
2023/08/18 02:03:26;;;;;;;;;;;16.80;99.90;;;;;;5094677;28;19926;-45
2023/08/18 02:05:52;;;;;;;;;;;16.80;99.90;;;;;;5094840;28;19967;-45
2023/08/18 02:08:18;;;;;;;;;;;16.80;99.90;;;;;;5094890;28;19927;-45
2023/08/18 02:10:44;;;;;;;;;;;16.80;99.90;;;;;;5094434;28;20488;-45
2023/08/18 02:13:10;;;;;;;;;;;16.80;99.90;;;;;;5094787;28;19924;-45
2023/08/18 02:15:35;;;;;;;;;;;16.80;99.90;;;;;;5094628;28;20355;-46
2023/08/18 02:18:01;;;;;;;;;;;16.80;99.90;;;;;;5094603;28;20398;-45
2023/08/18 02:20:26;;;;;;;;;;;16.80;99.90;;;;;;5094682;28;20275;-46
2023/08/18 02:22:52;;;;;;;;;;;16.80;99.90;;;;;;5094672;28;19920;-45
2023/08/18 02:25:17;;;;;;;;;;;16.70;99.90;;;;;;5094477;28;19920;-46
2023/08/18 02:27:43;;;;;;;;;;;16.70;99.90;;;;;;5093459;28;19966;-45
2023/08/18 02:30:09;;;;;;;;;;;16.70;99.90;;;;;;5094499;28;19927;-45
2023/08/18 02:32:34;;;;;;;;;;;16.70;99.90;;;;;;5094477;28;19927;-45
2023/08/18 02:35:01;;;;;;;;;;;16.70;99.90;;;;;;5094199;28;19920;-45
2023/08/18 02:37:27;;;;;;;;;;;16.70;99.90;;;;;;5094467;28;19920;-45
2023/08/18 02:39:52;;;;;;;;;;;16.70;99.90;;;;;;5094318;28;19920;-45
2023/08/18 02:42:20;;;;;;;;;;;16.70;99.90;;;;;;5093317;28;19946;-46
2023/08/18 02:44:46;;;;;;;;;;;16.70;99.90;;;;;;5094428;28;20353;-45
2023/08/18 02:47:13;;;;;;;;;;;16.70;99.90;;;;;;5094168;28;20023;-45
2023/08/18 02:49:38;;;;;;;;;;;16.70;99.90;;;;;;5094386;28;19920;-47
2023/08/18 02:52:04;;;;;;;;;;;16.70;99.90;;;;;;5094324;28;20357;-45
2023/08/18 02:54:30;;;;;;;;;;;16.70;99.90;;;;;;5094494;28;19919;-45
2023/08/18 02:56:55;;;;;;;;;;;16.70;99.90;;;;;;5094090;28;20336;-45
2023/08/18 02:59:21;;;;;;;;;;;16.70;99.90;;;;;;5093995;28;20306;-45
2023/08/18 03:01:47;;;;;;;;;;;16.70;99.90;;;;;;5094199;28;20375;-45
2023/08/18 03:04:15;;;;;;;;;;;16.70;99.90;;;;;;5093854;28;19990;-45
2023/08/18 03:06:41;;;;;;;;;;;16.70;99.90;;;;;;5094340;28;20279;-45
2023/08/18 03:09:07;;;;;;;;;;;16.70;99.90;;;;;;5094071;28;19920;-45
2023/08/18 03:11:33;;;;;;;;;;;16.70;99.90;;;;;;5094072;28;19919;-45
2023/08/18 03:13:58;;;;;;;;;;;16.70;99.90;;;;;;5093917;28;20329;-45
2023/08/18 03:16:24;;;;;;;;;;;16.70;99.90;;;;;;5093718;28;19988;-45
2023/08/18 03:18:49;;;;;;;;;;;16.70;99.90;;;;;;5094000;28;19920;-45
2023/08/18 03:21:15;;;;;;;;;;;16.70;99.90;;;;;;5093990;28;19924;-45
2023/08/18 03:23:40;;;;;;;;;;;16.80;99.90;;;;;;5096976;28;19926;-45
2023/08/18 03:26:06;;;;;;;;;;;16.70;99.90;;;;;;5097829;28;20287;-46
2023/08/18 03:28:34;;;;;;;;;;;16.80;99.90;;;;;;5097958;28;19927;-46
2023/08/18 03:31:00;;;;;;;;;;;16.80;99.90;;;;;;5097717;28;19920;-45
2023/08/18 03:33:26;;;;;;;;;;;16.80;99.90;;;;;;5098098;28;20381;-45
2023/08/18 03:35:51;;;;;;;;;;;16.80;99.90;;;;;;5130844;27;19920;-45
2023/08/18 03:38:17;;;;;;;;;;;16.80;99.90;;;;;;5097832;28;19920;-45
2023/08/18 03:40:43;;;;;;;;;;;16.80;99.90;;;;;;5079945;28;19920;-45
2023/08/18 03:43:08;;;;;;;;;;;16.80;99.90;;;;;;5097669;28;19927;-46
2023/08/18 03:45:35;;;;;;;;;;;16.80;99.90;;;;;;5096964;28;19927;-46
2023/08/18 03:48:01;;;;;;;;;;;16.80;99.90;;;;;;5097767;28;19927;-45
2023/08/18 03:50:26;;;;;;;;;;;16.80;99.90;;;;;;5097598;28;19920;-45
2023/08/18 03:52:52;;;;;;;;;;;16.80;99.90;;;;;;5097567;28;19920;-46
2023/08/18 03:55:18;;;;;;;;;;;16.80;99.90;;;;;;5097459;28;19943;-46
2023/08/18 03:57:43;;;;;;;;;;;16.80;99.90;;;;;;5097386;28;19971;-45
2023/08/18 04:00:09;;;;;;;;;;;16.80;99.90;;;;;;5097281;28;19924;-44
2023/08/18 04:02:35;;;;;;;;;;;16.90;99.90;;;;;;5096962;28;19920;-45
2023/08/18 04:05:00;;;;;;;;;;;16.90;99.90;;;;;;5097184;28;20355;-45
2023/08/18 04:07:26;;;;;;;;;;;16.90;99.90;;;;;;5097292;28;20366;-45
2023/08/18 04:09:52;;;;;;;;;;;16.90;99.90;;;;;;5097040;28;20383;-45
2023/08/18 04:12:17;;;;;;;;;;;16.90;99.90;;;;;;5096958;28;19920;-45
2023/08/18 04:14:43;;;;;;;;;;;16.90;99.90;;;;;;5097004;28;19950;-46
2023/08/18 04:17:09;;;;;;;;;;;16.90;99.90;;;;;;5096995;28;20007;-46
2023/08/18 04:19:35;;;;;;;;;;;16.90;99.90;;;;;;5096891;28;20027;-45
2023/08/18 04:22:00;;;;;;;;;;;16.90;99.90;;;;;;5097164;28;19920;-44
2023/08/18 04:24:26;;;;;;;;;;;16.90;99.90;;;;;;5096804;28;19920;-45
2023/08/18 04:26:59;;;;;;;;;;;16.90;99.90;;;;;;5096696;28;19924;-46
2023/08/18 04:29:25;;;;;;;;;;;16.90;99.90;;;;;;5095689;28;19920;-45
2023/08/18 04:31:51;;;;;;;;;;;16.90;99.90;;;;;;5096837;28;19934;-45
2023/08/18 04:34:17;;;;;;;;;;;16.90;99.90;;;;;;5096267;28;20377;-45
2023/08/18 04:36:42;;;;;;;;;;;16.90;99.90;;;;;;5095321;28;20410;-45
2023/08/18 04:39:09;;;;;;;;;;;16.90;99.90;;;;;;5096613;28;19920;-45
2023/08/18 04:41:35;;;;;;;;;;;17.00;99.90;;;;;;5096660;28;20110;-45
2023/08/18 04:44:01;;;;;;;;;;;17.00;99.90;;;;;;5096477;28;20457;-45
2023/08/18 04:46:26;;;;;;;;;;;17.00;99.90;;;;;;5096185;28;19920;-45
2023/08/18 04:48:52;;;;;;;;;;;17.00;99.90;;;;;;5096466;28;19920;-46
2023/08/18 04:51:17;;;;;;;;;;;17.00;99.90;;;;;;5096359;28;19970;-46
2023/08/18 04:53:43;;;;;;;;;;;17.00;99.90;;;;;;5096369;28;19954;-46
2023/08/18 04:56:09;;;;;;;;;;;17.00;99.90;;;;;;5096181;28;19920;-45
2023/08/18 04:58:35;;;;;;;;;;;17.00;99.90;;;;;;5096119;28;19920;-45
2023/08/18 05:01:00;;;;;;;;;;;17.00;99.90;;;;;;5096197;28;19923;-45
2023/08/18 05:03:26;;;;;;;;;;;17.00;99.90;;;;;;5096249;28;19920;-45
2023/08/18 05:06:08;;;;;;;;;;;17.00;99.90;;;;;;5094737;28;19920;-45
2023/08/18 05:08:34;;;;;;;;;;;17.10;99.90;;;;;;5095101;28;19920;-47
2023/08/18 05:11:09;;;;;;;;;;;17.10;99.90;;;;;;5095878;28;19927;-45
2023/08/18 05:13:36;;;;;;;;;;;17.10;99.90;;;;;;5095209;28;19943;-45
2023/08/18 05:16:03;;;;;;;;;;;17.10;99.90;;;;;;5094765;28;20325;-44
2023/08/18 05:18:29;;;;;;;;;;;17.10;99.90;;;;;;5096055;28;19980;-45
2023/08/18 05:20:57;;;;;;;;;;;17.10;99.90;;;;;;5095850;28;20003;-45
2023/08/18 05:23:24;;;;;;;;;;;17.20;99.90;;;;;;5095666;28;19924;-45
2023/08/18 05:25:53;;;;;;;;;;;17.20;99.90;;;;;;5095380;28;19920;-46
2023/08/18 05:28:19;;;;;;;;;;;17.20;99.90;;;;;;5095666;28;19920;-45
2023/08/18 05:30:45;;;;;;;;;;;17.20;99.90;;;;;;5095609;28;20276;-46
2023/08/18 05:33:11;;;;;;;;;;;17.20;99.90;;;;;;5095435;28;19920;-46
2023/08/18 05:35:37;;;;;;;;;;;17.20;99.90;;;;;;5095400;28;19920;-45
2023/08/18 05:38:04;;;;;;;;;;;17.20;99.90;;;;;;5095400;28;19924;-46
2023/08/18 05:40:29;;;;;;;;;;;17.20;99.90;;;;;;5094288;28;19920;-45
2023/08/18 05:42:55;;;;;;;;;;;17.20;99.90;;;;;;5095379;28;19924;-45
2023/08/18 05:45:20;;;;;;;;;;;17.20;99.90;;;;;;5093251;28;19924;-47
2023/08/18 05:47:46;;;;;;;;;;;17.20;99.90;;;;;;5095243;28;20378;-45
2023/08/18 05:50:11;;;;;;;;;;;17.20;99.90;;;;;;5094999;28;19920;-45
2023/08/18 05:52:37;;;;;;;;;;;17.20;99.90;;;;;;5094965;28;19920;-47
2023/08/18 05:55:04;;;;;;;;;;;17.20;99.90;;;;;;5094785;28;19920;-45
2023/08/18 05:57:30;;;;;;;;;;;17.30;99.90;;;;;;5095079;28;19980;-46
2023/08/18 05:59:55;;;;;;;;;;;17.30;99.90;;;;;;5094807;28;19924;-45
2023/08/18 06:02:21;;;;;;;;;;;17.30;99.90;;;;;;5095002;28;19920;-46
2023/08/18 06:04:46;;;;;;;;;;;17.30;99.90;;;;;;5095111;28;19926;-45
2023/08/18 06:07:12;;;;;;;;;;;17.30;99.90;;;;;;5094625;28;20020;-44
2023/08/18 06:09:37;;;;;;;;;;;17.30;99.90;;;;;;5094803;28;19920;-44
2023/08/18 06:12:03;;;;;;;;;;;17.30;99.90;;;;;;5095001;28;19999;-45
2023/08/18 06:14:29;;;;;;;;;;;17.30;99.90;;;;;;5094811;28;19927;-45
2023/08/18 06:16:54;;;;;;;;;;;17.30;99.90;;;;;;5093438;28;19931;-45
2023/08/18 06:19:20;;;;;;;;;;;17.30;99.90;;;;;;5094660;28;20003;-44
2023/08/18 06:21:45;;;;;;;;;;;17.30;99.90;;;;;;5094706;28;19920;-45
2023/08/18 06:24:11;;;;;;;;;;;17.40;99.90;;;;;;5093524;28;20416;-45
2023/08/18 06:26:37;;;;;;;;;;;17.40;99.90;;;;;;5093387;28;20282;-44
2023/08/18 06:29:02;;;;;;;;;;;17.40;99.90;;;;;;5094779;28;19920;-45
2023/08/18 06:31:28;;;;;;;;;;;17.40;99.90;;;;;;5094679;28;20374;-45
2023/08/18 06:33:55;;;;;;;;;;;17.40;99.90;;;;;;5093596;28;19919;-45
2023/08/18 06:36:20;;;;;;;;;;;17.40;99.90;;;;;;5094320;28;20015;-44
2023/08/18 06:38:46;;;;;;;;;;;17.40;99.90;;;;;;5094176;28;20407;-45
2023/08/18 06:41:11;;;;;;;;;;;17.40;99.90;;;;;;5094344;28;19970;-45
2023/08/18 06:43:37;;;;;;;;;;;17.50;99.90;;;;;;5093395;28;20014;-47
2023/08/18 06:46:04;;;;;;;;;;;17.50;99.90;;;;;;5094156;28;19927;-45
2023/08/18 06:48:29;;;;;;;;;;;17.50;99.90;;;;;;5094311;28;19920;-44
2023/08/18 06:50:55;;;;;;;;;;;17.50;99.90;;;;;;5094042;28;19931;-45
2023/08/18 06:53:20;;;;;;;;;;;17.50;99.90;;;;;;5093068;28;20012;-44
2023/08/18 06:55:46;;;;;;;;;;;17.50;99.90;;;;;;5092776;28;19924;-44
2023/08/18 06:58:12;;;;;;;;;;;17.50;99.90;;;;;;5094379;28;20371;-45
2023/08/18 07:00:38;;;;;;;;;;;17.50;99.90;;;;;;5094174;28;20394;-45
2023/08/18 07:03:04;;;;;;;;;;;17.60;99.90;;;;;;5094124;28;19920;-45
2023/08/18 07:05:29;;;;;;;;;;;17.60;99.90;;;;;;5093933;28;20386;-46
2023/08/18 07:07:55;;;;;;;;;;;17.60;99.90;;;;;;5094111;28;19924;-45
2023/08/18 07:10:21;;;;;;;;;;;17.60;99.90;;;;;;5094117;28;20021;-45
2023/08/18 07:12:46;;;;;;;;;;;17.60;99.90;;;;;;5093844;28;19920;-45
2023/08/18 07:15:12;;;;;;;;;;;17.60;99.90;;;;;;5094003;28;19927;-45
2023/08/18 07:17:37;;;;;;;;;;;17.70;99.90;;;;;;5093924;28;19920;-45
2023/08/18 07:20:05;;;;;;;;;;;17.70;99.90;;;;;;5094030;28;20434;-45
2023/08/18 07:22:31;;;;;;;;;;;17.70;99.90;;;;;;5093945;28;19920;-45
2023/08/18 07:24:57;;;;;;;;;;;17.70;99.90;;;;;;5094166;28;19927;-45
2023/08/18 07:27:23;;;;;;;;;;;17.70;99.90;;;;;;5093977;28;19942;-46
2023/08/18 07:29:48;;;;;;;;;;;17.70;99.90;;;;;;5094214;28;20367;-45
2023/08/18 07:32:14;;;;;;;;;;;17.70;99.90;;;;;;5092669;28;20293;-45
2023/08/18 07:34:39;;;;;;;;;;;17.70;99.90;;;;;;5093753;28;20036;-46
2023/08/18 07:37:05;;;;;;;;;;;17.70;99.90;;;;;;5093792;28;19993;-46
2023/08/18 07:39:31;;;;;;;;;;;17.70;99.90;;;;;;5093610;28;19923;-45
2023/08/18 07:41:56;;;;;;;;;;;17.70;99.90;;;;;;5093824;28;19920;-45
2023/08/18 07:44:22;;;;;;;;;;;17.80;99.90;;;;;;5093820;28;20278;-46
2023/08/18 07:46:48;;;;;;;;;;;17.80;99.90;;;;;;5093549;28;20022;-46
2023/08/18 07:49:13;;;;;;;;;;;17.80;99.90;;;;;;5093734;28;19920;-45
2023/08/18 07:51:39;;;;;;;;;;;17.80;99.90;;;;;;5092735;28;20394;-46
2023/08/18 07:54:06;;;;;;;;;;;17.80;99.90;;;;;;5076476;28;19924;-46
2023/08/18 07:56:31;;;;;;;;;;;17.80;99.90;;;;;;5093587;28;20053;-45
2023/08/18 07:58:57;;;;;;;;;;;17.80;99.90;;;;;;5093805;28;20011;-45
2023/08/18 08:01:23;;;;;;;;;;;17.80;99.90;;;;;;5092321;28;20382;-45
2023/08/18 08:03:48;;;;;;;;;;;17.80;99.90;;;;;;5093576;28;19920;-45
2023/08/18 08:06:14;;;;;;;;;;;17.80;99.90;;;;;;5093510;28;19920;-45
2023/08/18 08:08:40;;;;;;;;;;;17.80;99.90;;;;;;5094099;28;19924;-46
2023/08/18 08:11:05;;;;;;;;;;;17.80;99.90;;;;;;5097177;28;20291;-45
2023/08/18 08:13:31;;;;;;;;;;;17.90;99.90;;;;;;5097073;28;20028;-45
2023/08/18 08:15:56;;;;;;;;;;;17.90;99.90;;;;;;5096218;28;20015;-45
2023/08/18 08:18:22;;;;;;;;;;;17.90;99.90;;;;;;5096912;28;19927;-45
2023/08/18 08:20:47;;;;;;;;;;;17.90;99.90;;;;;;5097089;28;19920;-45
2023/08/18 08:23:15;;;;;;;;;;;18.00;99.90;;;;;;5096702;28;19927;-45
2023/08/18 08:25:41;;;;;;;;;;;18.00;99.90;;;;;;5096830;28;19920;-45
2023/08/18 08:28:07;;;;;;;;;;;18.00;99.90;;;;;;5096821;28;20002;-45
2023/08/18 08:30:32;;;;;;;;;;;18.10;99.90;;;;;;5096780;28;19974;-45
2023/08/18 08:32:58;;;;;;;;;;;18.10;99.90;;;;;;5096877;28;19963;-46
2023/08/18 08:35:23;;;;;;;;;;;18.20;99.90;;;;;;5096607;28;19924;-45
2023/08/18 08:37:49;;;;;;;;;;;18.20;99.90;;;;;;5096404;28;20294;-45
2023/08/18 08:40:16;;;;;;;;;;;18.30;99.90;;;;;;5096651;28;19928;-46
2023/08/18 08:42:42;;;;;;;;;;;18.30;99.90;;;;;;5095721;28;20108;-46
2023/08/18 08:45:08;;;;;;;;;;;18.30;99.90;;;;;;5096374;28;20406;-46
2023/08/18 08:47:33;;;;;;;;;;;18.40;99.90;;;;;;5095572;28;19920;-45
2023/08/18 08:50:01;;;;;;;;;;;18.40;99.90;;;;;;5096307;28;19943;-45
2023/08/18 08:52:27;;;;;;;;;;;18.50;99.90;;;;;;5096165;28;19920;-45
2023/08/18 08:54:57;;;;;;;;;;;18.50;99.90;;;;;;5096322;28;19942;-45
2023/08/18 08:57:23;;;;;;;;;;;18.50;99.90;;;;;;5096318;28;19919;-45
2023/08/18 08:59:49;;;;;;;;;;;18.60;99.90;;;;;;5096133;28;19927;-47
2023/08/18 09:02:15;;;;;;;;;;;18.60;99.90;;;;;;5096012;28;19927;-45
2023/08/18 09:04:40;;;;;;;;;;;18.60;99.90;;;;;;5094940;28;19920;-45
2023/08/18 09:07:08;;;;;;;;;;;18.70;99.90;;;;;;5095812;28;20512;-46
2023/08/18 09:09:34;;;;;;;;;;;18.80;99.90;;;;;;5096082;28;19927;-45
2023/08/18 09:12:02;;;;;;;;;;;18.80;99.90;;;;;;5096047;28;20310;-45
2023/08/18 09:14:27;;;;;;;;;;;18.80;99.90;;;;;;5095933;28;20019;-45
2023/08/18 09:16:53;;;;;;;;;;;18.80;99.90;;;;;;5095815;28;19970;-45
2023/08/18 09:19:18;;;;;;;;;;;18.80;99.90;;;;;;5094191;28;19920;-45
2023/08/18 09:21:44;;;;;;;;;;;18.80;99.90;;;;;;5094717;28;19965;-45
2023/08/18 09:24:09;;;;;;;;;;;18.80;99.90;;;;;;5095653;28;19927;-45
2023/08/18 09:26:35;;;;;;;;;;;18.90;99.90;;;;;;5095845;28;19924;-45
2023/08/18 09:29:02;;;;;;;;;;;18.90;99.90;;;;;;5095532;28;20369;-45
2023/08/18 09:31:28;;;;;;;;;;;19.00;99.90;;;;;;5094469;28;20438;-45
2023/08/18 09:33:54;;;;;;;;;;;19.00;99.90;;;;;;5095459;28;20003;-45
2023/08/18 09:36:19;;;;;;;;;;;19.00;99.90;;;;;;5095297;28;19924;-45
2023/08/18 09:38:45;;;;;;;;;;;19.00;99.90;;;;;;5095339;28;19924;-45
2023/08/18 09:41:11;;;;;;;;;;;19.00;99.90;;;;;;5095354;28;19920;-45
2023/08/18 09:43:37;;;;;;;;;;;19.00;99.90;;;;;;5095343;28;19927;-46
2023/08/18 09:46:04;;;;;;;;;;;19.10;99.90;;;;;;5095410;28;20258;-45
2023/08/18 09:48:34;;;;;;;;;;;19.10;99.90;;;;;;5095123;28;19927;-47
2023/08/18 09:51:00;;;;;;;;;;;19.10;99.90;;;;;;5095267;28;20417;-45
2023/08/18 09:53:32;;;;;;;;;;;19.10;99.90;;;;;;5095221;28;19928;-46
2023/08/18 09:56:03;;;;;;;;;;;19.20;99.90;;;;;;5094211;28;19920;-45
2023/08/18 09:58:38;;;;;;;;;;;19.20;99.90;;;;;;5095272;28;20320;-45
2023/08/18 10:01:05;;;;;;;;;;;19.30;99.90;;;;;;5094900;28;19920;-45
2023/08/18 10:03:34;;;;;;;;;;;19.30;99.90;;;;;;5094176;28;20007;-45
2023/08/18 10:06:00;;;;;;;;;;;19.40;99.90;;;;;;5094866;28;19920;-46
2023/08/18 10:08:25;;;;;;;;;;;19.40;99.90;;;;;;5094988;28;20018;-46
2023/08/18 10:10:51;;;;;;;;;;;19.50;99.90;;;;;;5094861;28;19920;-45
2023/08/18 10:13:17;;;;;;;;;;;19.50;99.90;;;;;;5094937;28;19920;-47
2023/08/18 10:15:43;;;;;;;;;;;19.60;99.90;;;;;;5094533;28;19920;-45
2023/08/18 10:18:11;;;;;;;;;;;19.70;99.90;;;;;;5093892;28;20007;-46
2023/08/18 10:20:47;;;;;;;;;;;19.80;99.90;;;;;;5094920;28;20378;-44
2023/08/18 10:23:12;;;;;;;;;;;19.90;99.90;;;;;;5093927;28;19986;-47
2023/08/18 10:25:38;;;;;;;;;;;19.90;99.90;;;;;;5093447;28;19973;-47
2023/08/18 10:28:05;;;;;;;;;;;20.00;99.90;;;;;;5076662;28;19927;-46
2023/08/18 10:30:31;;;;;;;;;;;20.00;99.90;;;;;;5094495;28;19920;-49
2023/08/18 10:33:00;;;;;;;;;;;20.00;99.90;;;;;;5092917;28;19920;-46
2023/08/18 10:35:29;;;;;;;;;;;20.00;99.90;;;;;;5094450;28;19924;-46
2023/08/18 10:37:58;;;;;;;;;;;20.00;99.90;;;;;;5094422;28;19928;-46
2023/08/18 10:40:31;;;;;;;;;;;20.10;99.90;;;;;;5093205;28;19924;-46
2023/08/18 10:42:58;;;;;;;;;;;20.10;99.90;;;;;;5094361;28;19983;-46
2023/08/18 10:45:24;;;;;;;;;;;20.10;99.90;;;;;;5094120;28;19930;-46
2023/08/18 10:47:50;;;;;;;;;;;20.20;99.90;;;;;;5094235;28;20068;-46
2023/08/18 10:50:17;;;;;;;;;;;20.20;99.90;;;;;;5094186;28;19924;-46
2023/08/18 10:52:42;;;;;;;;;;;20.20;99.90;;;;;;5094285;28;19920;-46
2023/08/18 10:55:08;;;;;;;;;;;20.20;99.90;;;;;;5093163;28;20362;-45
2023/08/18 10:57:33;;;;;;;;;;;20.30;99.90;;;;;;5093132;28;19920;-46
2023/08/18 10:59:59;;;;;;;;;;;20.30;99.90;;;;;;5094177;28;19973;-45
2023/08/18 11:02:25;;;;;;;;;;;20.30;99.90;;;;;;5094150;28;19928;-46
2023/08/18 11:04:51;;;;;;;;;;;20.40;99.90;;;;;;5093174;28;20371;-47
2023/08/18 11:07:20;;;;;;;;;;;20.40;99.90;;;;;;5093975;28;19920;-46
2023/08/18 11:09:46;;;;;;;;;;;20.50;99.90;;;;;;5093920;28;19923;-46
2023/08/18 11:12:11;;;;;;;;;;;20.50;99.90;;;;;;5094118;28;19927;-45
2023/08/18 11:14:37;;;;;;;;;;;20.60;99.90;;;;;;5094078;28;19959;-46
2023/08/18 11:17:02;;;;;;;;;;;20.60;99.90;;;;;;5094252;28;19920;-46
2023/08/18 11:19:28;;;;;;;;;;;20.70;99.90;;;;;;5093173;28;19920;-46
2023/08/18 11:21:55;;;;;;;;;;;20.70;99.90;;;;;;5093964;28;19927;-46
2023/08/18 11:24:21;;;;;;;;;;;20.70;99.90;;;;;;5092896;28;20087;-46
2023/08/18 11:26:47;;;;;;;;;;;20.70;99.90;;;;;;5093672;28;20041;-46
2023/08/18 11:29:13;;;;;;;;;;;20.70;99.90;;;;;;5093945;28;20345;-46
2023/08/18 11:31:39;;;;;;;;;;;20.80;99.90;;;;;;5094178;28;19920;-47
2023/08/18 11:34:05;;;;;;;;;;;20.80;99.90;;;;;;5093976;28;19942;-46
2023/08/18 11:36:32;;;;;;;;;;;20.90;99.90;;;;;;5092931;28;19920;-46
2023/08/18 11:39:06;;;;;;;;;;;20.90;99.90;;;;;;5093684;28;19982;-46
2023/08/18 11:41:37;;;;;;;;;;;20.90;99.90;;;;;;5093117;28;19963;-45
2023/08/18 11:44:02;;;;;;;;;;;20.90;99.90;;;;;;5095040;28;19919;-45
2023/08/18 11:46:28;;;;;;;;;;;20.90;99.90;;;;;;5097303;28;20270;-46
2023/08/18 11:48:54;;;;;;;;;;;20.90;99.90;;;;;;5097565;28;20375;-45
2023/08/18 11:51:20;;;;;;;;;;;21.00;99.90;;;;;;5097669;28;19986;-46
2023/08/18 11:53:45;;;;;;;;;;;21.00;99.90;;;;;;5097531;28;19924;-45
2023/08/18 11:56:11;;;;;;;;;;;21.00;99.90;;;;;;5097468;28;19927;-47
2023/08/18 11:58:36;;;;;;;;;;;21.10;99.90;;;;;;5097436;28;19920;-47
2023/08/18 12:01:03;;;;;;;;;;;21.10;99.90;;;;;;5097191;28;19920;-46
2023/08/18 12:03:29;;;;;;;;;;;21.10;99.90;;;;;;5097364;28;19927;-48
2023/08/18 12:05:58;;;;;;;;;;;21.20;99.90;;;;;;5097140;28;19920;-47
2023/08/18 12:08:24;;;;;;;;;;;21.20;99.90;;;;;;5097017;28;19927;-46
2023/08/18 12:10:52;;;;;;;;;;;21.30;99.90;;;;;;5097369;28;19920;-46
2023/08/18 12:13:18;;;;;;;;;;;21.20;99.90;;;;;;5097206;28;20003;-46
2023/08/18 12:15:43;;;;;;;;;;;21.30;99.90;;;;;;5096941;28;19967;-46
2023/08/18 12:18:09;;;;;;;;;;;21.40;99.90;;;;;;5096946;28;19927;-46
2023/08/18 12:20:35;;;;;;;;;;;21.40;99.90;;;;;;5095864;28;19942;-46
2023/08/18 12:23:01;;;;;;;;;;;21.40;99.90;;;;;;5096798;28;19919;-46
2023/08/18 12:25:27;;;;;;;;;;;21.50;99.90;;;;;;5096832;28;19920;-46
2023/08/18 12:27:52;;;;;;;;;;;21.50;99.90;;;;;;5096032;28;19965;-46
2023/08/18 12:30:19;;;;;;;;;;;21.50;99.90;;;;;;5096740;28;19920;-46
2023/08/18 12:32:46;;;;;;;;;;;21.60;99.90;;;;;;5096647;28;20382;-46
2023/08/18 12:35:11;;;;;;;;;;;21.80;99.90;;;;;;5096678;28;20007;-46
2023/08/18 12:37:37;;;;;;;;;;;21.90;99.90;;;;;;5096479;28;20414;-48
2023/08/18 12:40:10;;;;;;;;;;;22.00;99.90;;;;;;5096401;28;20379;-46
2023/08/18 12:42:36;;;;;;;;;;;22.20;99.90;;;;;;5095841;28;19946;-46
2023/08/18 12:45:01;;;;;;;;;;;22.40;99.90;;;;;;5096412;28;19920;-45
2023/08/18 12:47:27;;;;;;;;;;;22.70;99.90;;;;;;5096377;28;20283;-46
2023/08/18 12:49:53;;;;;;;;;;;22.90;99.90;;;;;;5096300;28;19920;-45
2023/08/18 12:52:18;;;;;;;;;;;23.20;99.90;;;;;;5095337;28;20363;-46
2023/08/18 12:54:45;;;;;;;;;;;23.40;99.90;;;;;;5096016;28;19943;-45
2023/08/18 12:57:11;;;;;;;;;;;23.60;99.90;;;;;;5096306;28;19920;-47
2023/08/18 12:59:36;;;;;;;;;;;23.70;99.90;;;;;;5096371;28;19920;-46
2023/08/18 13:02:03;;;;;;;;;;;23.70;99.90;;;;;;5096103;28;20363;-46
2023/08/18 13:04:30;;;;;;;;;;;23.70;99.90;;;;;;5096045;28;19927;-47
2023/08/18 13:06:55;;;;;;;;;;;23.60;99.90;;;;;;5095847;28;19923;-46
2023/08/18 13:09:22;;;;;;;;;;;23.60;99.90;;;;;;5096089;28;19920;-47
2023/08/18 13:11:48;;;;;;;;;;;23.60;99.90;;;;;;5078341;28;20347;-46
2023/08/18 13:14:13;;;;;;;;;;;23.60;99.90;;;;;;5095936;28;19964;-46
2023/08/18 13:16:41;;;;;;;;;;;23.70;99.90;;;;;;5096153;28;19922;-47
2023/08/18 13:19:07;;;;;;;;;;;23.90;99.90;;;;;;5095929;28;19927;-46
2023/08/18 13:21:32;;;;;;;;;;;24.10;99.90;;;;;;5095675;28;20028;-47
2023/08/18 13:23:59;;;;;;;;;;;24.20;99.90;;;;;;5095798;28;19963;-46
2023/08/18 13:26:25;;;;;;;;;;;24.20;99.90;;;;;;5095705;28;19924;-47
2023/08/18 13:28:50;;;;;;;;;;;24.10;99.90;;;;;;5095761;28;19920;-46
2023/08/18 13:31:16;;;;;;;;;;;24.00;99.90;;;;;;5095594;28;19927;-47
2023/08/18 13:33:42;;;;;;;;;;;23.90;99.90;;;;;;5094538;28;20383;-45
2023/08/18 13:36:07;;;;;;;;;;;23.90;99.90;;;;;;5095380;28;19981;-46
2023/08/18 13:38:33;;;;;;;;;;;23.80;99.90;;;;;;5094358;28;20336;-46
2023/08/18 13:40:58;;;;;;;;;;;23.70;99.90;;;;;;5094315;28;19924;-46
2023/08/18 13:43:25;;;;;;;;;;;23.60;99.90;;;;;;5095467;28;19920;-47
2023/08/18 13:45:51;;;;;;;;;;;23.50;99.90;;;;;;5095154;28;20351;-45
2023/08/18 13:48:16;;;;;;;;;;;23.40;99.90;;;;;;5095445;28;19920;-46
2023/08/18 13:50:42;;;;;;;;;;;23.40;99.90;;;;;;5095242;28;19966;-47
2023/08/18 13:53:11;;;;;;;;;;;23.30;99.90;;;;;;5095031;28;20019;-45
2023/08/18 13:55:42;;;;;;;;;;;23.20;99.90;;;;;;5095222;28;19967;-45
2023/08/18 13:58:07;;;;;;;;;;;23.20;99.90;;;;;;5095057;28;19920;-46
2023/08/18 14:00:33;;;;;;;;;;;23.20;99.90;;;;;;5094924;28;19927;-45
2023/08/18 14:02:58;;;;;;;;;;;23.10;99.90;;;;;;5094915;28;19972;-46
2023/08/18 14:05:24;;;;;;;;;;;23.10;99.90;;;;;;5094874;28;19920;-46
2023/08/18 14:07:49;;;;;;;;;;;23.10;99.90;;;;;;5094388;28;19924;-46
2023/08/18 14:10:15;;;;;;;;;;;23.10;99.90;;;;;;5094946;28;19924;-46